Flight Number: AVA1534 Duration: 3:00
Departure: Murmansk (ULMM) at 21:45 Distance: 1109.33 Nm
Arrival: Kiev Borispol (UKBB) at 00:45 Equipment: MD-81

Weather Information
Murmansk, Russia (ULMM) 68-58N 033-03E 51M Oct 22, 2020 - 08:30 AM EDT / 2020.10.22 1230 UTC
Wind: from the ENE (070 degrees) at 4 MPH (4 KT):0
Visibility: greater than 7 mile(s):0
Sky conditions: partly cloudy Temperature: 24 F (-4 C) Dew Point: 24 F (-4 C) Relative Humidity: 100% Pressure (altimeter): 29.77 in. Hg (1008 hPa)
ob: ULMM 221230Z 07002MPS 9999 SCT007 M04/M04 Q1008 R13/350050 NOSIG RMK OBST OBSC QFE749 cycle: 12
Sunrise: 05:35 Sunset: 13:31 (UTC)

Boryspil, Ukraine (UKBB) 50-20N 030-58E 122M Oct 22, 2020 - 08:30 AM EDT / 2020.10.22 1230 UTC
Wind: from the SW (230 degrees) at 11 MPH (10 KT):0
Visibility: greater than 7 mile(s):0 Temperature: 62 F (17 C) Dew Point: 41 F (5 C) Relative Humidity: 45% Pressure (altimeter): 30.06 in. Hg (1018 hPa)
ob: UKBB 221230Z 23005MPS CAVOK 17/05 Q1018 R18L/CLRD// NOSIG cycle: 12
Sunrise: 04:35 Sunset: 14:45 (UTC)

TAF:2020/10/22 12:06 TAF TAF UKBB 221100Z 2212/2312 23006G12MPS 9999 BKN030 BECMG 2218/2220 22003G08MPS TEMPO 2221/2306 2000 BR BKN006 BECMG 2306/2308 24005G10MPS

This route has never been flown.

Route map